Time;durP1;ratioP1;P1;durP2;ratioP2;P2;SDS_P1;SDS_P2;PMS_P1;PMS_P2;Temp;Humidity;BMP_temperature;BMP_pressure;BME280_temperature;BME280_humidity;BME280_pressure;Samples;Min_cycle;Max_cycle;Signal;HPM_P1;HPM_P2
2022/05/26 00:01:08;;;;;;;;;6.00;6.00;;;;;15.26;72.01;101590.97;5054011;28;9095;-64
2022/05/26 00:03:42;;;;;;;;;5.33;5.00;;;;;15.29;72.12;101593.28;5053746;28;9225;-64
2022/05/26 00:06:11;;;;;;;;;7.00;7.00;;;;;15.32;71.83;101603.72;5052315;28;10037;-65
2022/05/26 00:08:38;;;;;;;;;5.67;5.67;;;;;15.24;71.89;101594.97;5053473;28;9879;-64
2022/05/26 00:11:11;;;;;;;;;11.33;7.00;;;;;15.19;72.39;101592.00;5053135;28;9231;-64
2022/05/26 00:13:40;;;;;;;;;10.67;8.67;;;;;15.21;72.43;101601.63;5054214;28;9304;-64
2022/05/26 00:16:07;;;;;;;;;7.67;7.33;;;;;15.23;72.30;101595.97;5051539;28;9295;-63
2022/05/26 00:18:34;;;;;;;;;11.00;7.00;;;;;15.22;72.29;101595.16;5052815;28;9341;-63
2022/05/26 00:21:01;;;;;;;;;8.33;4.67;;;;;15.18;71.85;101593.88;5054353;28;9869;-63
2022/05/26 00:23:27;;;;;;;;;9.67;5.33;;;;;15.21;72.09;101601.63;5045867;28;9386;-64
2022/05/26 00:25:54;;;;;;;;;9.00;6.33;;;;;15.20;71.88;101607.25;5034192;28;9153;-63
2022/05/26 00:28:20;;;;;;;;;7.00;3.00;;;;;15.20;72.13;101605.38;5051319;28;9202;-63
2022/05/26 00:30:48;;;;;;;;;10.67;7.00;;;;;15.19;71.73;101605.56;5054045;28;9260;-65
2022/05/26 00:33:16;;;;;;;;;6.00;5.67;;;;;15.11;72.09;101603.06;5053862;28;9357;-64
2022/05/26 00:35:43;;;;;;;;;5.00;3.67;;;;;15.13;72.29;101607.25;5054108;28;9160;-64
2022/05/26 00:38:12;;;;;;;;;6.00;6.00;;;;;15.13;72.48;101598.28;5052312;28;9142;-64
2022/05/26 00:40:40;;;;;;;;;6.33;4.33;;;;;15.15;72.09;101607.88;5053938;28;9364;-64
2022/05/26 00:43:07;;;;;;;;;2.67;2.67;;;;;15.15;72.08;101609.72;5053555;28;9148;-63
2022/05/26 00:45:37;;;;;;;;;7.00;6.00;;;;;15.14;72.14;101606.19;5053746;28;9177;-65
2022/05/26 00:48:09;;;;;;;;;7.00;4.33;;;;;15.12;72.10;101607.47;5052839;28;9239;-63
2022/05/26 00:50:47;;;;;;;;;7.33;7.00;;;;;15.13;72.00;101607.25;5053366;28;9943;-65
2022/05/26 00:53:20;;;;;;;;;3.00;2.00;;;;;15.10;72.21;101615.78;5052158;28;9389;-64
2022/05/26 00:55:57;;;;;;;;;4.33;3.00;;;;;15.14;72.15;101618.91;5052366;28;9932;-64
2022/05/26 00:58:36;;;;;;;;;10.33;5.67;;;;;15.15;72.21;101620.59;5052970;28;9215;-64
2022/05/26 01:01:10;;;;;;;;;4.00;3.67;;;;;15.15;71.98;101618.72;5053506;28;9323;-64
2022/05/26 01:03:51;;;;;;;;;10.33;8.67;;;;;15.13;72.33;101619.97;5052846;28;9176;-64
2022/05/26 01:06:33;;;;;;;;;6.00;4.33;;;;;15.11;72.24;101625.63;5052326;28;9400;-65
2022/05/26 01:09:04;;;;;;;;;5.00;2.33;;;;;15.13;72.13;101622.69;5034383;28;9378;-64
2022/05/26 01:11:36;;;;;;;;;6.00;6.00;;;;;15.15;72.20;101624.16;5034578;28;9247;-65
2022/05/26 01:14:20;;;;;;;;;5.67;5.00;;;;;15.12;72.14;101624.56;5040104;28;9300;-65
2022/05/26 01:17:15;;;;;;;;;7.00;5.33;;;;;15.16;72.03;101630.41;5036436;28;9305;-65
2022/05/26 01:20:03;;;;;;;;;5.00;4.00;;;;;15.15;71.87;101632.28;5051369;28;9324;-64
2022/05/26 01:22:50;;;;;;;;;8.33;5.33;;;;;15.15;71.90;101640.44;5052642;28;9249;-65
2022/05/26 01:25:23;;;;;;;;;9.67;7.33;;;;;15.17;72.01;101641.03;5052504;28;9315;-65
2022/05/26 01:28:19;;;;;;;;;2.00;2.00;;;;;15.23;71.72;101644.81;5044386;28;9456;-64
2022/05/26 01:31:04;;;;;;;;;5.33;4.00;;;;;15.23;71.76;101645.66;5028204;28;9246;-64
2022/05/26 01:33:42;;;;;;;;;8.33;6.00;;;;;15.21;71.47;101641.47;5050808;28;9393;-63
2022/05/26 01:36:15;;;;;;;;;8.33;4.00;;;;;15.19;71.59;101640.81;5034647;28;9291;-63
2022/05/26 01:39:13;;;;;;;;;7.33;6.67;;;;;15.19;71.62;101647.13;5052709;28;9299;-63
2022/05/26 01:41:58;;;;;;;;;4.67;4.33;;;;;15.20;71.25;101650.66;5051796;28;9385;-64
2022/05/26 01:44:45;;;;;;;;;5.00;3.00;;;;;15.21;71.22;101655.88;5046547;28;9215;-65
2022/05/26 01:47:28;;;;;;;;;6.33;5.00;;;;;15.22;71.20;101656.69;5044039;28;9869;-65
2022/05/26 01:50:07;;;;;;;;;3.33;3.33;;;;;15.21;70.93;101653.16;5051256;28;10086;-66
2022/05/26 01:53:09;;;;;;;;;2.33;2.33;;;;;15.19;70.96;101651.69;5049595;28;9298;-66
2022/05/26 01:56:06;;;;;;;;;2.00;2.00;;;;;15.19;70.92;101659.81;5048748;28;9131;-64
2022/05/26 01:58:46;;;;;;;;;2.00;2.00;;;;;15.20;70.80;101670.47;5033649;28;9908;-62
2022/05/26 02:01:18;;;;;;;;;3.00;3.00;;;;;15.22;70.88;101657.53;5050960;28;9212;-64
2022/05/26 02:03:48;;;;;;;;;6.67;3.33;;;;;15.23;70.52;101659.22;5032706;28;8994;-64
2022/05/26 02:06:30;;;;;;;;;3.00;2.33;;;;;15.25;70.30;101661.72;5032146;28;9178;-64
2022/05/26 02:09:08;;;;;;;;;7.00;5.67;;;;;15.22;70.21;101657.53;5031155;28;9778;-63
2022/05/26 02:11:49;;;;;;;;;5.67;4.67;;;;;15.22;69.82;101673.81;5034774;28;9790;-63
2022/05/26 02:14:27;;;;;;;;;5.00;3.00;;;;;15.23;69.91;101677.34;5051771;28;9134;-65
2022/05/26 02:17:00;;;;;;;;;2.33;2.00;;;;;15.23;69.69;101664.66;5051289;28;9233;-63
2022/05/26 02:19:35;;;;;;;;;3.67;2.00;;;;;15.23;69.36;101677.34;5055279;28;8972;-64
2022/05/26 02:22:18;;;;;;;;;6.33;5.00;;;;;15.18;69.27;101680.69;5055471;28;9062;-64
2022/05/26 02:25:00;;;;;;;;;3.00;3.00;;;;;15.19;69.56;101690.50;5055629;28;9305;-64
2022/05/26 02:27:28;;;;;;;;;4.00;1.67;;;;;15.22;68.95;101684.66;5055016;28;9223;-64
2022/05/26 02:30:00;;;;;;;;;7.00;2.67;;;;;15.23;69.12;101688.19;5055642;28;9174;-63
2022/05/26 02:32:37;;;;;;;;;2.00;2.00;;;;;15.24;68.56;101692.59;5052160;28;9162;-65
2022/05/26 02:35:11;;;;;;;;;1.33;1.33;;;;;15.25;68.46;101684.25;5035377;28;9168;-64
2022/05/26 02:37:39;;;;;;;;;1.33;1.33;;;;;15.27;68.51;101692.19;5045091;28;9990;-64
2022/05/26 02:40:07;;;;;;;;;2.33;2.33;;;;;15.26;68.36;101696.78;5055203;28;9082;-64
2022/05/26 02:42:43;;;;;;;;;2.00;2.00;;;;;15.23;68.07;101697.19;5054853;28;9049;-63
2022/05/26 02:45:11;;;;;;;;;7.33;5.67;;;;;15.18;68.14;101688.81;5055004;28;9161;-64
2022/05/26 02:48:01;;;;;;;;;2.67;2.00;;;;;15.19;68.22;101689.66;5045097;28;10095;-64
2022/05/26 02:50:55;;;;;;;;;1.00;1.00;;;;;15.19;68.02;101704.06;5035077;28;9172;-64
2022/05/26 02:53:44;;;;;;;;;5.00;2.33;;;;;15.17;68.25;101698.00;5052431;28;8993;-64
2022/05/26 02:56:15;;;;;;;;;2.67;1.33;;;;;15.15;68.12;101702.81;5055263;28;8977;-65
2022/05/26 02:58:59;;;;;;;;;1.00;1.00;;;;;15.18;68.38;101712.41;5054485;28;9110;-64
2022/05/26 03:01:33;;;;;;;;;2.00;2.00;;;;;15.19;68.01;101717.63;5053312;28;8958;-64
2022/05/26 03:04:08;;;;;;;;;2.00;2.00;;;;;15.19;68.20;101711.34;5054926;28;9078;-64
2022/05/26 03:06:50;;;;;;;;;1.00;1.00;;;;;15.18;67.81;101710.50;5053823;28;9091;-64
2022/05/26 03:09:19;;;;;;;;;1.00;1.00;;;;;15.17;67.90;101722.41;5054423;28;9155;-64
2022/05/26 03:11:51;;;;;;;;;0.67;0.00;;;;;15.17;67.73;101716.97;5053633;28;9017;-65
2022/05/26 03:14:19;;;;;;;;;5.00;3.00;;;;;15.15;67.50;101720.94;5033440;28;8914;-65
2022/05/26 03:16:52;;;;;;;;;2.33;2.00;;;;;15.12;67.70;101719.47;5038487;28;9072;-64
2022/05/26 03:19:19;;;;;;;;;1.67;1.00;;;;;15.12;67.92;101722.19;5052873;28;9051;-65
2022/05/26 03:21:45;;;;;;;;;2.00;1.00;;;;;15.11;67.71;101719.66;5052627;28;9045;-66
2022/05/26 03:24:12;;;;;;;;;2.00;1.00;;;;;15.09;67.80;101715.28;5053121;28;8965;-66
2022/05/26 03:26:39;;;;;;;;;1.00;1.00;;;;;15.07;67.62;101721.97;5051591;28;9138;-66
2022/05/26 03:29:06;;;;;;;;;1.00;1.00;;;;;15.07;67.76;101720.09;5051513;28;9065;-65
2022/05/26 03:31:33;;;;;;;;;1.00;1.00;;;;;15.09;67.53;101723.41;5052828;28;9068;-65
2022/05/26 03:42:19;;;;;;;;;1.33;1.33;;;;;15.05;67.62;101730.28;5052400;28;9052;-66
2022/05/26 03:44:46;;;;;;;;;1.00;1.00;;;;;15.07;67.41;101738.25;5052701;28;9001;-66
2022/05/26 03:47:13;;;;;;;;;0.00;0.00;;;;;15.06;67.42;101734.66;5051054;28;9066;-66
2022/05/26 03:49:40;;;;;;;;;1.33;1.33;;;;;15.06;67.46;101741.97;5052659;28;9055;-66
2022/05/26 03:52:06;;;;;;;;;1.25;1.25;;;;;15.06;67.57;101748.22;5052561;28;8913;-66
2022/05/26 03:54:33;;;;;;;;;1.67;1.67;;;;;15.07;67.32;101749.09;5052659;28;8830;-66
2022/05/26 03:56:59;;;;;;;;;1.00;0.00;;;;;15.09;67.46;101755.13;5051886;28;9658;-66
2022/05/26 03:59:26;;;;;;;;;1.33;1.00;;;;;15.07;67.44;101754.50;5052969;28;8908;-66
2022/05/26 04:01:53;;;;;;;;;2.00;1.00;;;;;15.07;67.58;101754.50;5052463;28;8925;-65
2022/05/26 04:04:20;;;;;;;;;1.00;1.00;;;;;15.05;67.50;101759.28;5050642;28;9059;-66
2022/05/26 04:06:48;;;;;;;;;1.50;1.50;;;;;15.05;67.53;101762.81;5051827;28;8991;-65
2022/05/26 04:09:15;;;;;;;;;1.50;0.75;;;;;15.06;67.45;101760.94;5052421;28;8813;-66
2022/05/26 04:11:41;;;;;;;;;2.00;1.00;;;;;15.06;67.75;101766.38;5039413;28;8853;-66
2022/05/26 04:14:08;;;;;;;;;1.33;0.00;;;;;15.05;67.65;101768.25;5048070;28;8932;-66
2022/05/26 04:16:35;;;;;;;;;1.00;1.00;;;;;15.06;67.51;101767.19;5034827;28;8961;-65
2022/05/26 04:19:01;;;;;;;;;1.00;1.00;;;;;15.06;67.62;101777.22;5052418;28;9248;-66
2022/05/26 04:21:28;;;;;;;;;1.00;1.00;;;;;15.06;67.66;101782.63;5051787;28;9052;-66
2022/05/26 04:23:54;;;;;;;;;0.67;0.00;;;;;15.06;67.42;101785.34;5052311;28;9109;-65
2022/05/26 04:26:21;;;;;;;;;1.00;1.00;;;;;15.07;67.59;101796.03;5052447;28;9082;-65
2022/05/26 04:28:47;;;;;;;;;0.00;0.00;;;;;15.05;67.67;101795.38;5052182;28;9154;-65
2022/05/26 04:31:14;;;;;;;;;1.00;1.00;;;;;15.04;67.52;101793.69;5049217;28;8979;-66
2022/05/26 04:33:40;;;;;;;;;1.33;1.00;;;;;15.03;67.51;101799.34;5052027;28;9185;-65
2022/05/26 04:36:07;;;;;;;;;1.25;0.25;;;;;15.03;67.74;101796.63;5052605;28;8914;-66
2022/05/26 04:38:33;;;;;;;;;1.00;1.00;;;;;15.04;67.42;101801.00;5051342;28;8822;-65
2022/05/26 04:41:06;;;;;;;;;1.00;1.00;;;;;15.01;67.62;101790.53;5051277;28;9064;-65
2022/05/26 04:43:33;;;;;;;;;1.00;1.00;;;;;15.03;67.57;101789.31;5051457;28;8924;-65
2022/05/26 04:46:02;;;;;;;;;0.25;0.25;;;;;15.04;67.24;101798.28;5049873;28;9063;-66
2022/05/26 04:48:29;;;;;;;;;1.33;1.33;;;;;15.05;66.94;101787.22;5051089;28;8838;-65
2022/05/26 04:50:56;;;;;;;;;0.33;0.33;;;;;15.06;67.24;101796.19;5051547;28;8959;-65
2022/05/26 04:53:22;;;;;;;;;0.00;0.00;;;;;15.06;67.34;101799.75;5051270;28;8984;-65
2022/05/26 04:55:53;;;;;;;;;0.50;0.50;;;;;15.06;67.22;101798.91;5051417;28;8821;-65
2022/05/26 04:58:20;;;;;;;;;0.00;0.00;;;;;15.05;67.46;101808.09;5051053;28;8810;-65
2022/05/26 05:00:46;;;;;;;;;0.25;0.25;;;;;15.06;67.16;101809.75;5051451;28;8924;-65
2022/05/26 05:03:13;;;;;;;;;1.00;1.00;;;;;15.06;67.23;101810.59;5041521;28;8828;-65
2022/05/26 05:05:40;;;;;;;;;2.00;1.00;;;;;15.09;67.15;101815.63;5031390;28;9059;-65
2022/05/26 05:08:06;;;;;;;;;0.67;0.67;;;;;15.10;67.31;101816.44;5046232;28;8970;-66
2022/05/26 05:10:33;;;;;;;;;1.00;1.00;;;;;15.08;67.19;101818.53;5051052;28;9172;-65
2022/05/26 05:13:02;;;;;;;;;1.00;1.00;;;;;15.10;67.11;101819.16;5050251;28;9076;-65
2022/05/26 05:15:39;;;;;;;;;1.00;1.00;;;;;15.14;67.33;101825.03;5051084;28;9060;-65
2022/05/26 05:18:06;;;;;;;;;1.00;1.00;;;;;15.15;67.12;101813.13;5050430;28;8986;-65
2022/05/26 05:20:34;;;;;;;;;0.33;0.33;;;;;15.16;67.32;101831.94;5050903;28;8902;-65
2022/05/26 05:23:08;;;;;;;;;1.33;1.33;;;;;15.17;67.35;101830.91;5050679;28;9065;-65
2022/05/26 05:25:40;;;;;;;;;3.00;2.00;;;;;15.13;66.86;101835.03;5051057;28;8927;-65
2022/05/26 05:28:15;;;;;;;;;1.00;1.00;;;;;15.14;66.80;101836.72;5050064;28;9052;-65
2022/05/26 05:30:51;;;;;;;;;0.00;0.00;;;;;15.20;66.89;101846.78;5051029;28;9075;-65
2022/05/26 05:33:26;;;;;;;;;2.67;2.00;;;;;15.22;66.55;101844.69;5050984;28;9063;-65
2022/05/26 05:36:04;;;;;;;;;1.67;1.00;;;;;15.22;66.55;101855.53;5051039;28;9163;-65
2022/05/26 05:38:33;;;;;;;;;2.00;1.00;;;;;15.23;66.38;101853.66;5050230;28;9051;-65
2022/05/26 05:41:01;;;;;;;;;1.00;1.00;;;;;15.25;66.40;101857.84;5050525;28;8995;-64
2022/05/26 05:43:33;;;;;;;;;1.33;1.00;;;;;15.32;66.46;101863.31;5050286;28;9022;-64
2022/05/26 05:45:59;;;;;;;;;1.67;1.67;;;;;15.45;66.80;101862.56;5030652;28;8926;-65
2022/05/26 05:48:26;;;;;;;;;2.00;1.00;;;;;15.64;66.42;101860.94;5048107;28;8974;-65
2022/05/26 05:50:52;;;;;;;;;0.25;0.25;;;;;15.85;65.71;101863.56;5050402;28;8907;-65
2022/05/26 05:53:19;;;;;;;;;1.00;1.00;;;;;16.00;65.40;101868.81;5049424;28;8884;-65
2022/05/26 05:55:45;;;;;;;;;1.50;1.00;;;;;16.13;64.78;101868.88;5050469;28;8806;-65
2022/05/26 05:58:12;;;;;;;;;1.00;1.00;;;;;16.23;64.08;101869.28;5050102;28;8810;-65
2022/05/26 06:00:40;;;;;;;;;0.50;0.25;;;;;16.31;63.91;101869.09;5048597;28;8838;-65
2022/05/26 06:03:07;;;;;;;;;1.75;1.75;;;;;16.36;63.05;101868.47;5049420;28;8880;-65
2022/05/26 06:05:35;;;;;;;;;3.00;1.00;;;;;16.42;62.81;101869.53;5050346;28;9568;-65
2022/05/26 06:08:02;;;;;;;;;2.50;1.25;;;;;16.43;62.59;101877.47;5049989;28;8821;-65
2022/05/26 06:10:31;;;;;;;;;1.00;1.00;;;;;16.39;62.49;101865.34;5049727;28;8842;-66
2022/05/26 06:12:58;;;;;;;;;1.00;0.00;;;;;16.40;62.76;101883.31;5049537;28;8891;-65
2022/05/26 06:15:25;;;;;;;;;2.25;1.00;;;;;16.39;62.55;101878.94;5049999;28;8822;-66
2022/05/26 06:17:51;;;;;;;;;1.00;0.00;;;;;16.41;62.13;101878.75;5049888;28;8844;-65
2022/05/26 06:20:19;;;;;;;;;0.00;0.00;;;;;16.40;61.67;101887.91;5047000;28;8860;-66
2022/05/26 06:22:47;;;;;;;;;0.00;0.00;;;;;16.40;61.71;101886.03;5049429;28;8861;-65
2022/05/26 06:25:16;;;;;;;;;1.00;1.00;;;;;16.38;61.63;101898.16;5050230;28;8837;-65
2022/05/26 06:30:32;;;;;;;;;1.00;1.00;;;;;16.46;61.71;101903.41;5049826;28;8846;-66
2022/05/26 06:38:36;;;;;;;;;0.25;0.25;;;;;16.42;62.07;101902.16;5040002;28;9561;-66
2022/05/26 06:43:51;;;;;;;;;1.25;0.00;;;;;16.35;61.67;101904.00;5039486;28;8809;-66
2022/05/26 06:46:19;;;;;;;;;1.00;1.00;;;;;16.34;61.92;101905.91;5037408;28;8866;-66
2022/05/26 06:48:46;;;;;;;;;2.25;1.75;;;;;16.35;61.96;101914.88;5032481;28;8828;-66
2022/05/26 06:51:14;;;;;;;;;1.25;0.25;;;;;16.31;62.27;101917.16;5048140;28;8891;-66
2022/05/26 06:53:40;;;;;;;;;0.50;0.50;;;;;16.32;61.82;101919.66;5049529;28;8888;-66
2022/05/26 06:56:08;;;;;;;;;2.00;1.00;;;;;16.38;61.89;101926.19;5048635;28;9509;-66
2022/05/26 06:58:34;;;;;;;;;5.00;3.00;;;;;16.32;61.65;101927.00;5043664;28;8895;-66
2022/05/26 07:01:00;;;;;;;;;2.75;2.00;;;;;16.32;61.68;101927.81;5049712;28;8830;-66
2022/05/26 07:03:27;;;;;;;;;1.00;1.00;;;;;16.36;61.79;101935.56;5049091;28;8968;-65
2022/05/26 07:05:54;;;;;;;;;0.50;0.25;;;;;16.39;61.70;101936.00;5053268;28;8806;-65
2022/05/26 07:08:20;;;;;;;;;1.75;1.75;;;;;16.46;61.70;101936.03;5052788;28;8825;-64
2022/05/26 07:10:48;;;;;;;;;2.75;2.75;;;;;16.52;61.67;101933.28;5053092;28;8833;-64
2022/05/26 07:13:14;;;;;;;;;1.25;1.00;;;;;16.58;61.83;101933.53;5052972;28;8826;-65
2022/05/26 07:15:40;;;;;;;;;4.00;3.00;;;;;16.54;61.71;101943.97;5053264;28;8895;-65
2022/05/26 07:18:08;;;;;;;;;2.50;1.25;;;;;16.46;61.73;101947.72;5052816;28;8895;-65
2022/05/26 07:20:37;;;;;;;;;2.00;2.00;;;;;16.44;62.65;101944.38;5053111;28;8837;-66
2022/05/26 07:23:08;;;;;;;;;2.75;2.00;;;;;16.44;62.69;101954.41;5052841;28;8837;-65
2022/05/26 07:25:39;;;;;;;;;3.67;3.00;;;;;16.36;63.01;101951.88;5045533;28;8833;-68
2022/05/26 07:28:06;;;;;;;;;2.25;2.25;;;;;16.27;63.57;101953.94;5047757;28;8986;-66
2022/05/26 07:30:32;;;;;;;;;2.00;2.00;;;;;16.26;63.44;101946.84;5053108;28;8818;-66
2022/05/26 07:32:59;;;;;;;;;1.00;1.00;;;;;16.33;63.44;101955.84;5053240;28;8943;-66
2022/05/26 07:35:25;;;;;;;;;3.25;3.25;;;;;16.31;62.70;101952.50;5053200;28;8810;-66
2022/05/26 07:43:23;;;;;;;;;1.75;1.00;;;;;16.39;63.19;101943.31;5036287;28;8809;-66
2022/05/26 07:45:50;;;;;;;;;1.50;1.50;;;;;16.44;63.38;101960.66;5032946;28;8830;-66
2022/05/26 07:48:17;;;;;;;;;1.00;1.00;;;;;16.50;63.10;101946.28;5048946;28;9521;-66
2022/05/26 07:50:43;;;;;;;;;3.25;3.00;;;;;16.52;63.03;101952.31;5052494;28;8828;-66
2022/05/26 07:53:10;;;;;;;;;2.75;1.50;;;;;16.60;63.08;101954.00;5052475;28;8854;-66
2022/05/26 07:55:38;;;;;;;;;3.00;3.00;;;;;16.60;63.28;101959.44;5052029;28;8821;-67
2022/05/26 07:58:05;;;;;;;;;2.50;2.25;;;;;16.64;62.89;101962.59;5051430;28;8842;-66
2022/05/26 08:00:31;;;;;;;;;2.00;2.00;;;;;16.70;62.64;101959.91;5052546;28;8845;-66
2022/05/26 08:02:58;;;;;;;;;3.50;3.00;;;;;16.74;62.86;101961.19;5052340;28;8833;-66
2022/05/26 08:05:25;;;;;;;;;2.00;2.00;;;;;16.75;62.77;101962.03;5052586;28;8824;-67
2022/05/26 08:07:51;;;;;;;;;2.00;2.00;;;;;16.77;62.17;101965.34;5051967;28;8833;-66
2022/05/26 08:10:18;;;;;;;;;4.00;2.50;;;;;16.83;62.51;101966.41;5033215;28;8828;-66
2022/05/26 08:12:44;;;;;;;;;2.25;2.00;;;;;16.75;61.77;101978.34;5044440;28;8844;-66
2022/05/26 08:15:11;;;;;;;;;5.00;3.25;;;;;16.66;61.60;101980.38;5051279;28;8829;-67
2022/05/26 08:17:38;;;;;;;;;5.00;5.00;;;;;16.60;61.52;101977.63;5051358;28;8818;-67
2022/05/26 08:20:05;;;;;;;;;2.50;2.50;;;;;16.55;61.27;101972.81;5051975;28;8840;-66
2022/05/26 08:22:32;;;;;;;;;3.00;3.00;;;;;16.62;61.42;101981.00;5051950;28;8861;-65
2022/05/26 08:24:59;;;;;;;;;2.75;2.75;;;;;16.62;61.31;101983.72;5047545;28;9512;-67
2022/05/26 08:27:26;;;;;;;;;3.25;2.50;;;;;16.65;61.60;101984.16;5041173;28;8899;-66
2022/05/26 08:29:54;;;;;;;;;3.00;3.00;;;;;16.70;61.71;101986.25;5051660;28;8814;-67
2022/05/26 08:32:22;;;;;;;;;3.00;2.00;;;;;16.77;61.53;101987.97;5050262;28;8895;-65
2022/05/26 08:34:49;;;;;;;;;4.25;4.25;;;;;16.78;61.79;101994.25;5051757;28;8833;-66
2022/05/26 08:37:19;;;;;;;;;2.00;2.00;;;;;16.78;61.19;101995.06;5051394;28;8842;-66
2022/05/26 08:39:46;;;;;;;;;5.00;4.00;;;;;16.72;61.61;101997.75;5051551;28;8848;-66
2022/05/26 08:42:28;;;;;;;;;3.00;2.00;;;;;16.68;61.74;101993.75;5051362;28;8868;-67
2022/05/26 08:45:04;;;;;;;;;2.75;1.25;;;;;16.76;61.52;102004.47;5051714;28;8838;-68
2022/05/26 08:47:35;;;;;;;;;4.50;2.00;;;;;16.87;61.52;102001.16;5050416;28;8822;-66
2022/05/26 08:50:10;;;;;;;;;2.00;2.00;;;;;16.91;60.86;102009.72;5051656;28;8810;-67
2022/05/26 08:52:47;;;;;;;;;2.50;2.50;;;;;16.95;60.87;102019.97;5051316;28;8902;-67
2022/05/26 08:55:22;;;;;;;;;1.75;1.75;;;;;16.99;60.46;102026.69;5051446;28;9532;-66
2022/05/26 08:57:56;;;;;;;;;2.00;2.00;;;;;17.07;60.09;102014.75;5051110;28;8837;-66
2022/05/26 09:00:24;;;;;;;;;3.00;1.75;;;;;17.04;60.32;102020.63;5051517;28;8848;-67
2022/05/26 09:02:58;;;;;;;;;3.00;2.75;;;;;17.03;60.02;102018.94;5045264;28;8840;-67
2022/05/26 09:05:32;;;;;;;;;2.50;1.25;;;;;16.96;59.62;102015.38;5031206;28;9505;-67
2022/05/26 09:14:01;;;;;;;;;1.50;1.50;;;;;17.14;57.69;102028.38;5031297;28;8817;-66
2022/05/26 09:16:30;;;;;;;;;2.75;1.00;;;;;17.14;58.07;102025.66;5032524;28;8812;-66
2022/05/26 09:19:18;;;;;;;;;2.00;1.00;;;;;17.38;58.70;102019.59;5051577;28;8889;-66
2022/05/26 09:21:48;;;;;;;;;2.25;2.00;;;;;17.54;58.10;102023.72;5051065;28;8829;-66
2022/05/26 09:24:32;;;;;;;;;2.75;1.50;;;;;17.73;57.74;102032.91;5050673;28;8830;-65
2022/05/26 09:27:23;;;;;;;;;1.00;1.00;;;;;17.74;57.23;102032.75;5036524;28;8900;-67
2022/05/26 09:29:49;;;;;;;;;2.75;2.00;;;;;17.74;56.71;102038.22;5051109;28;8821;-65
2022/05/26 09:32:18;;;;;;;;;1.75;0.75;;;;;17.78;56.82;102041.31;5050700;28;8826;-65
2022/05/26 09:35:07;;;;;;;;;3.00;2.00;;;;;17.84;57.50;102048.66;5050958;28;8834;-66
2022/05/26 09:37:39;;;;;;;;;4.75;2.75;;;;;17.90;57.23;102058.69;5050445;28;8888;-66
2022/05/26 09:40:19;;;;;;;;;4.00;2.75;;;;;17.65;56.48;102063.09;5046766;28;9618;-66
2022/05/26 09:42:51;;;;;;;;;1.75;1.00;;;;;17.61;57.49;102070.00;5049423;28;9528;-66
2022/05/26 09:45:19;;;;;;;;;2.00;2.00;;;;;17.63;57.79;102057.03;5050723;28;8810;-66
2022/05/26 09:47:54;;;;;;;;;3.00;3.00;;;;;17.69;57.57;102050.72;5049875;28;8822;-66
2022/05/26 09:50:33;;;;;;;;;3.00;2.00;;;;;17.72;57.62;102051.16;5050527;28;8818;-66
2022/05/26 09:53:01;;;;;;;;;2.50;2.00;;;;;17.85;57.49;102054.94;5050324;28;8822;-66
2022/05/26 09:55:30;;;;;;;;;2.00;2.00;;;;;17.82;56.94;102049.91;5050220;28;9564;-66
2022/05/26 09:58:11;;;;;;;;;1.00;1.00;;;;;17.75;56.61;102042.59;5040680;28;8817;-68
2022/05/26 10:00:47;;;;;;;;;1.75;1.75;;;;;17.78;57.16;102041.31;5030225;28;8813;-66
2022/05/26 10:03:41;;;;;;;;;2.50;1.50;;;;;17.81;57.11;102045.50;5046107;28;8902;-67
2022/05/26 10:06:20;;;;;;;;;2.00;2.00;;;;;17.77;56.56;102062.25;5050621;28;8818;-67
2022/05/26 10:09:02;;;;;;;;;6.25;2.75;;;;;17.79;56.63;102064.81;5030123;28;8886;-66
2022/05/26 10:11:50;;;;;;;;;2.00;2.00;;;;;17.66;57.33;102060.19;5033052;28;8816;-66
2022/05/26 10:14:49;;;;;;;;;6.25;3.25;;;;;17.65;57.54;102063.94;5044966;28;8812;-66
2022/05/26 10:17:43;;;;;;;;;1.25;1.00;;;;;17.73;56.95;102071.88;5037449;28;8905;-67
2022/05/26 10:20:35;;;;;;;;;3.00;2.50;;;;;17.72;56.37;102069.38;5049833;28;8838;-66
2022/05/26 10:23:40;;;;;;;;;2.00;2.00;;;;;17.78;56.42;102079.44;5049258;28;9524;-67
2022/05/26 10:26:21;;;;;;;;;2.75;1.75;;;;;17.85;56.12;102061.22;4999799;28;8826;-67
2022/05/26 10:28:50;;;;;;;;;0.75;0.75;;;;;17.92;55.98;102069.38;5049615;28;8830;-67
2022/05/26 10:31:45;;;;;;;;;2.50;2.50;;;;;18.01;56.17;102079.00;5048811;28;8822;-67
2022/05/26 10:34:20;;;;;;;;;3.00;3.00;;;;;17.92;55.28;102075.66;5030225;28;9098;-65
2022/05/26 10:36:57;;;;;;;;;3.50;3.00;;;;;17.89;54.94;102078.81;5034109;28;8822;-67
2022/05/26 10:39:40;;;;;;;;;2.00;2.00;;;;;17.96;55.24;102073.34;5052910;28;8822;-66
2022/05/26 10:42:23;;;;;;;;;2.00;2.00;;;;;17.94;55.03;102062.66;5035794;28;9564;-68
2022/05/26 10:45:09;;;;;;;;;2.00;2.00;;;;;18.10;55.95;102071.41;5054553;28;8899;-66
2022/05/26 10:47:52;;;;;;;;;2.50;1.25;;;;;18.12;55.24;102070.16;5052429;28;8905;-66
2022/05/26 10:50:28;;;;;;;;;4.50;3.00;;;;;18.26;55.01;102058.16;5034633;28;8914;-67
2022/05/26 10:53:04;;;;;;;;;1.75;1.75;;;;;18.29;54.79;102065.91;5047408;28;8850;-67
2022/05/26 10:55:38;;;;;;;;;3.75;1.00;;;;;18.26;54.33;102062.75;5053546;28;8857;-64
2022/05/26 10:58:20;;;;;;;;;4.50;1.50;;;;;18.19;54.09;102067.41;5053051;28;8802;-67
2022/05/26 11:00:55;;;;;;;;;1.50;1.00;;;;;18.07;54.01;102063.66;5053858;28;9541;-67
2022/05/26 11:03:32;;;;;;;;;2.00;2.00;;;;;17.98;54.06;102074.78;5053496;28;8830;-66
2022/05/26 11:06:23;;;;;;;;;1.25;1.25;;;;;17.88;53.87;102062.69;5051577;28;8940;-66
2022/05/26 11:08:56;;;;;;;;;2.00;2.00;;;;;17.90;54.25;102063.28;5033414;28;8821;-66
2022/05/26 11:11:32;;;;;;;;;2.00;2.00;;;;;17.81;53.86;102070.84;5035024;28;8828;-66
2022/05/26 11:14:06;;;;;;;;;1.00;1.00;;;;;17.82;54.89;102066.25;5052175;28;8818;-66
2022/05/26 11:19:58;;;;;;;;;2.75;2.00;;;;;17.98;54.75;102060.34;5050362;28;8907;-66
2022/05/26 11:22:25;;;;;;;;;2.75;1.75;;;;;18.04;54.50;102054.88;5053419;28;8868;-66
2022/05/26 11:24:53;;;;;;;;;2.25;1.25;;;;;18.14;54.23;102059.88;5053130;28;8998;-65
2022/05/26 11:27:36;;;;;;;;;0.50;0.50;;;;;18.28;54.47;102053.31;5052618;28;8806;-65
2022/05/26 11:36:59;;;;;;;;;2.00;2.00;;;;;18.44;52.85;102070.25;5052609;28;8822;-65
2022/05/26 11:39:33;;;;;;;;;1.50;1.50;;;;;18.31;52.83;102064.84;5052792;28;8841;-65
2022/05/26 11:42:07;;;;;;;;;2.00;2.00;;;;;18.24;52.97;102063.00;5052487;28;8891;-67
2022/05/26 11:44:37;;;;;;;;;2.00;2.00;;;;;18.29;53.20;102065.91;5052722;28;8814;-66
2022/05/26 11:47:33;;;;;;;;;1.00;1.00;;;;;18.32;53.24;102058.34;5044906;28;8837;-65
2022/05/26 11:50:04;;;;;;;;;2.00;2.00;;;;;18.30;52.62;102064.00;5032549;28;8930;-67
2022/05/26 11:52:34;;;;;;;;;1.50;1.50;;;;;18.36;52.77;102062.31;5043456;28;8825;-69
2022/05/26 11:55:39;;;;;;;;;1.00;1.00;;;;;18.42;52.58;102059.56;5052470;28;8883;-67
2022/05/26 11:58:17;;;;;;;;;1.75;1.00;;;;;18.54;52.76;102073.34;5052141;28;8818;-67
2022/05/26 12:00:44;;;;;;;;;0.25;0.25;;;;;18.51;51.16;102062.84;5052480;28;8813;-69
2022/05/26 12:03:20;;;;;;;;;1.00;1.00;;;;;18.48;51.03;102066.88;5050904;28;8849;-66
2022/05/26 12:06:17;;;;;;;;;2.25;1.00;;;;;18.51;51.04;102069.19;5052569;28;8829;-70
2022/05/26 12:08:53;;;;;;;;;2.00;1.00;;;;;18.52;51.22;102064.56;5034060;28;8872;-67
2022/05/26 12:11:52;;;;;;;;;0.75;0.00;;;;;18.55;50.50;102069.56;5052298;28;8893;-66
2022/05/26 12:14:22;;;;;;;;;1.50;0.75;;;;;18.53;50.06;102060.75;5014785;28;8844;-66
2022/05/26 12:16:49;;;;;;;;;0.00;0.00;;;;;18.53;50.22;102058.03;5039312;28;8822;-65
2022/05/26 12:19:38;;;;;;;;;0.00;0.00;;;;;18.58;50.58;102066.41;5039920;28;9500;-65
2022/05/26 12:22:21;;;;;;;;;1.25;0.75;;;;;18.61;50.25;102062.41;5038766;28;8907;-67
2022/05/26 12:24:59;;;;;;;;;3.50;1.75;;;;;18.62;50.41;102061.34;5051995;28;8888;-66
2022/05/26 12:28:03;;;;;;;;;0.75;0.75;;;;;18.61;50.52;102055.06;5051332;28;8829;-68
2022/05/26 12:30:29;;;;;;;;;1.00;1.00;;;;;18.63;50.61;102050.22;5051989;28;8826;-67
2022/05/26 12:32:56;;;;;;;;;1.50;1.00;;;;;18.58;50.44;102050.03;5051655;28;8818;-66
2022/05/26 12:35:42;;;;;;;;;0.00;0.00;;;;;18.59;49.56;102054.44;5050592;28;8900;-67
2022/05/26 12:38:31;;;;;;;;;0.50;0.50;;;;;18.60;49.97;102052.56;5051033;28;8817;-66
2022/05/26 12:41:09;;;;;;;;;1.00;1.00;;;;;18.64;50.48;102045.63;5052609;28;8895;-65
2022/05/26 12:44:00;;;;;;;;;0.25;0.25;;;;;18.75;50.09;102053.94;5052067;28;8895;-68